sensor_id;sensor_type;location;lat;lon;timestamp;pressure;altitude;pressure_sealevel;temperature;humidity
31346;BME280;21711;49.708;18.568;2023-02-11T00:01:30;98967.97;;;-3.91;100.00
31346;BME280;21711;49.708;18.568;2023-02-11T00:03:58;98962.53;;;-3.98;100.00
31346;BME280;21711;49.708;18.568;2023-02-11T00:06:28;98962.00;;;-4.01;100.00
31346;BME280;21711;49.708;18.568;2023-02-11T00:08:56;98956.41;;;-4.06;100.00
31346;BME280;21711;49.708;18.568;2023-02-11T00:11:25;98960.78;;;-4.17;100.00
31346;BME280;21711;49.708;18.568;2023-02-11T00:13:58;98949.63;;;-4.27;100.00
31346;BME280;21711;49.708;18.568;2023-02-11T00:16:27;98941.56;;;-4.04;100.00
31346;BME280;21711;49.708;18.568;2023-02-11T00:18:55;98947.44;;;-3.73;100.00
31346;BME280;21711;49.708;18.568;2023-02-11T00:21:25;98944.00;;;-3.83;100.00
31346;BME280;21711;49.708;18.568;2023-02-11T00:23:53;98933.16;;;-4.06;100.00
31346;BME280;21711;49.708;18.568;2023-02-11T00:26:29;98940.09;;;-4.27;100.00
31346;BME280;21711;49.708;18.568;2023-02-11T00:28:57;98936.28;;;-4.42;100.00
31346;BME280;21711;49.708;18.568;2023-02-11T00:31:26;98933.66;;;-4.62;100.00
31346;BME280;21711;49.708;18.568;2023-02-11T00:33:54;98924.56;;;-4.66;100.00
31346;BME280;21711;49.708;18.568;2023-02-11T00:36:25;98928.59;;;-4.73;100.00
31346;BME280;21711;49.708;18.568;2023-02-11T00:38:55;98931.75;;;-4.60;100.00
31346;BME280;21711;49.708;18.568;2023-02-11T00:41:23;98919.50;;;-4.68;100.00
31346;BME280;21711;49.708;18.568;2023-02-11T00:43:51;98921.16;;;-4.57;100.00
31346;BME280;21711;49.708;18.568;2023-02-11T00:46:19;98922.16;;;-4.08;100.00
31346;BME280;21711;49.708;18.568;2023-02-11T00:48:47;98912.16;;;-3.74;100.00
31346;BME280;21711;49.708;18.568;2023-02-11T00:51:15;98907.16;;;-3.75;100.00
31346;BME280;21711;49.708;18.568;2023-02-11T00:53:42;98903.34;;;-3.91;100.00
31346;BME280;21711;49.708;18.568;2023-02-11T00:56:09;98905.69;;;-3.50;100.00
31346;BME280;21711;49.708;18.568;2023-02-11T00:58:37;98904.97;;;-3.32;100.00
31346;BME280;21711;49.708;18.568;2023-02-11T01:01:05;98909.28;;;-3.23;100.00
31346;BME280;21711;49.708;18.568;2023-02-11T01:03:34;98897.59;;;-3.27;100.00
31346;BME280;21711;49.708;18.568;2023-02-11T01:06:02;98900.16;;;-3.27;100.00
31346;BME280;21711;49.708;18.568;2023-02-11T01:08:29;98893.94;;;-3.34;100.00
31346;BME280;21711;49.708;18.568;2023-02-11T01:11:02;98877.69;;;-3.54;100.00
31346;BME280;21711;49.708;18.568;2023-02-11T01:13:33;98880.19;;;-3.73;100.00
31346;BME280;21711;49.708;18.568;2023-02-11T01:16:03;98868.13;;;-4.02;100.00
31346;BME280;21711;49.708;18.568;2023-02-11T01:18:33;98866.13;;;-4.18;100.00
31346;BME280;21711;49.708;18.568;2023-02-11T01:21:00;98852.78;;;-4.33;100.00
31346;BME280;21711;49.708;18.568;2023-02-11T01:23:28;98853.63;;;-4.32;100.00
31346;BME280;21711;49.708;18.568;2023-02-11T01:25:56;98847.38;;;-4.30;100.00
31346;BME280;21711;49.708;18.568;2023-02-11T01:28:27;98839.06;;;-4.24;100.00
31346;BME280;21711;49.708;18.568;2023-02-11T01:30:55;98842.56;;;-4.05;100.00
31346;BME280;21711;49.708;18.568;2023-02-11T01:33:23;98827.84;;;-4.04;100.00
31346;BME280;21711;49.708;18.568;2023-02-11T01:35:51;98809.19;;;-3.88;100.00
31346;BME280;21711;49.708;18.568;2023-02-11T01:38:23;98812.84;;;-3.81;100.00
31346;BME280;21711;49.708;18.568;2023-02-11T01:40:55;98803.28;;;-3.80;100.00
31346;BME280;21711;49.708;18.568;2023-02-11T01:43:25;98801.66;;;-3.72;100.00
31346;BME280;21711;49.708;18.568;2023-02-11T01:48:35;98798.28;;;-3.82;100.00
31346;BME280;21711;49.708;18.568;2023-02-11T01:51:20;98803.22;;;-3.99;100.00
31346;BME280;21711;49.708;18.568;2023-02-11T01:53:49;98802.84;;;-4.14;100.00
31346;BME280;21711;49.708;18.568;2023-02-11T01:56:41;98795.69;;;-4.30;100.00
31346;BME280;21711;49.708;18.568;2023-02-11T01:59:38;98805.63;;;-4.55;100.00
31346;BME280;21711;49.708;18.568;2023-02-11T02:02:10;98787.97;;;-4.59;100.00
31346;BME280;21711;49.708;18.568;2023-02-11T02:04:52;98793.94;;;-4.59;100.00
31346;BME280;21711;49.708;18.568;2023-02-11T02:07:45;98783.09;;;-4.72;100.00
31346;BME280;21711;49.708;18.568;2023-02-11T02:10:20;98777.38;;;-4.66;100.00
31346;BME280;21711;49.708;18.568;2023-02-11T02:12:49;98777.50;;;-4.68;100.00
31346;BME280;21711;49.708;18.568;2023-02-11T02:15:28;98769.19;;;-4.62;100.00
31346;BME280;21711;49.708;18.568;2023-02-11T02:21:07;98762.25;;;-4.41;100.00
31346;BME280;21711;49.708;18.568;2023-02-11T02:30:23;98761.91;;;-4.08;100.00
31346;BME280;21711;49.708;18.568;2023-02-11T02:33:03;98769.91;;;-4.02;100.00
31346;BME280;21711;49.708;18.568;2023-02-11T02:36:21;98757.53;;;-4.08;100.00
31346;BME280;21711;49.708;18.568;2023-02-11T02:39:25;98750.72;;;-3.99;100.00
31346;BME280;21711;49.708;18.568;2023-02-11T02:41:55;98753.25;;;-3.89;100.00
31346;BME280;21711;49.708;18.568;2023-02-11T02:44:23;98755.56;;;-3.86;100.00
31346;BME280;21711;49.708;18.568;2023-02-11T02:46:50;98752.28;;;-3.78;100.00
31346;BME280;21711;49.708;18.568;2023-02-11T02:49:18;98755.75;;;-3.70;100.00
31346;BME280;21711;49.708;18.568;2023-02-11T02:57:54;98738.13;;;-3.56;100.00
31346;BME280;21711;49.708;18.568;2023-02-11T03:06:42;98711.25;;;-3.27;100.00
31346;BME280;21711;49.708;18.568;2023-02-11T03:09:26;98696.03;;;-3.12;100.00
31346;BME280;21711;49.708;18.568;2023-02-11T03:11:56;98694.47;;;-3.05;100.00
31346;BME280;21711;49.708;18.568;2023-02-11T03:14:25;98701.72;;;-3.08;100.00
31346;BME280;21711;49.708;18.568;2023-02-11T03:16:56;98696.63;;;-3.00;100.00
31346;BME280;21711;49.708;18.568;2023-02-11T03:19:42;98690.56;;;-2.91;100.00
31346;BME280;21711;49.708;18.568;2023-02-11T03:22:23;98690.31;;;-2.79;100.00
31346;BME280;21711;49.708;18.568;2023-02-11T03:24:53;98688.03;;;-2.82;100.00
31346;BME280;21711;49.708;18.568;2023-02-11T03:28:10;98690.41;;;-2.89;100.00
31346;BME280;21711;49.708;18.568;2023-02-11T03:30:55;98679.69;;;-2.94;100.00
31346;BME280;21711;49.708;18.568;2023-02-11T03:33:45;98674.44;;;-3.02;100.00
31346;BME280;21711;49.708;18.568;2023-02-11T03:36:23;98681.53;;;-2.86;100.00
31346;BME280;21711;49.708;18.568;2023-02-11T03:38:56;98686.25;;;-2.82;100.00
31346;BME280;21711;49.708;18.568;2023-02-11T03:41:25;98689.94;;;-2.84;100.00
31346;BME280;21711;49.708;18.568;2023-02-11T03:43:56;98677.09;;;-3.12;100.00
31346;BME280;21711;49.708;18.568;2023-02-11T03:46:32;98679.09;;;-3.24;100.00
31346;BME280;21711;49.708;18.568;2023-02-11T03:49:08;98683.72;;;-3.18;100.00
31346;BME280;21711;49.708;18.568;2023-02-11T03:51:37;98688.00;;;-3.09;100.00
31346;BME280;21711;49.708;18.568;2023-02-11T03:54:10;98687.78;;;-3.15;100.00
31346;BME280;21711;49.708;18.568;2023-02-11T03:56:55;98690.19;;;-2.96;100.00
31346;BME280;21711;49.708;18.568;2023-02-11T03:59:23;98694.84;;;-2.81;100.00
31346;BME280;21711;49.708;18.568;2023-02-11T04:01:51;98695.25;;;-2.68;100.00
31346;BME280;21711;49.708;18.568;2023-02-11T04:04:18;98694.22;;;-2.48;100.00
31346;BME280;21711;49.708;18.568;2023-02-11T04:06:46;98687.09;;;-2.20;100.00
31346;BME280;21711;49.708;18.568;2023-02-11T04:09:13;98691.91;;;-1.90;100.00
31346;BME280;21711;49.708;18.568;2023-02-11T04:11:41;98684.41;;;-1.59;100.00
31346;BME280;21711;49.708;18.568;2023-02-11T04:14:08;98695.91;;;-1.61;100.00
31346;BME280;21711;49.708;18.568;2023-02-11T04:16:35;98674.84;;;-1.66;100.00
31346;BME280;21711;49.708;18.568;2023-02-11T04:19:03;98672.00;;;-1.90;100.00
31346;BME280;21711;49.708;18.568;2023-02-11T04:21:31;98663.97;;;-2.48;99.41
31346;BME280;21711;49.708;18.568;2023-02-11T04:23:58;98654.72;;;-2.77;100.00
31346;BME280;21711;49.708;18.568;2023-02-11T04:26:25;98635.91;;;-2.79;100.00
31346;BME280;21711;49.708;18.568;2023-02-11T04:28:52;98640.72;;;-2.66;100.00
31346;BME280;21711;49.708;18.568;2023-02-11T04:31:19;98626.78;;;-2.65;100.00
31346;BME280;21711;49.708;18.568;2023-02-11T04:33:47;98608.84;;;-2.58;100.00
31346;BME280;21711;49.708;18.568;2023-02-11T04:36:14;98604.91;;;-2.36;100.00
31346;BME280;21711;49.708;18.568;2023-02-11T04:38:41;98603.03;;;-2.17;100.00
31346;BME280;21711;49.708;18.568;2023-02-11T04:41:08;98596.75;;;-1.98;100.00
31346;BME280;21711;49.708;18.568;2023-02-11T04:43:36;98605.75;;;-1.76;100.00
31346;BME280;21711;49.708;18.568;2023-02-11T04:46:03;98598.47;;;-1.39;100.00
31346;BME280;21711;49.708;18.568;2023-02-11T04:48:30;98598.44;;;-0.97;100.00
31346;BME280;21711;49.708;18.568;2023-02-11T04:50:58;98598.53;;;-0.65;100.00
31346;BME280;21711;49.708;18.568;2023-02-11T04:53:25;98592.44;;;-0.41;99.20
31346;BME280;21711;49.708;18.568;2023-02-11T04:55:52;98579.63;;;-0.43;99.17
31346;BME280;21711;49.708;18.568;2023-02-11T04:58:20;98574.81;;;-0.22;98.08
31346;BME280;21711;49.708;18.568;2023-02-11T05:00:47;98584.19;;;-0.13;95.97
31346;BME280;21711;49.708;18.568;2023-02-11T05:03:15;98598.19;;;-0.14;96.52
31346;BME280;21711;49.708;18.568;2023-02-11T05:05:43;98591.78;;;-0.03;94.97
31346;BME280;21711;49.708;18.568;2023-02-11T05:08:11;98597.91;;;0.04;94.53
31346;BME280;21711;49.708;18.568;2023-02-11T05:10:38;98583.88;;;-0.10;94.95
31346;BME280;21711;49.708;18.568;2023-02-11T05:13:05;98582.38;;;-0.04;95.04
31346;BME280;21711;49.708;18.568;2023-02-11T05:15:33;98585.59;;;-0.02;94.92
31346;BME280;21711;49.708;18.568;2023-02-11T05:18:00;98587.16;;;-0.16;95.27
31346;BME280;21711;49.708;18.568;2023-02-11T05:20:27;98593.97;;;-0.15;95.07
31346;BME280;21711;49.708;18.568;2023-02-11T05:22:55;98606.13;;;-0.07;94.56
31346;BME280;21711;49.708;18.568;2023-02-11T05:25:22;98599.00;;;-0.14;94.32
31346;BME280;21711;49.708;18.568;2023-02-11T05:27:49;98599.66;;;-0.20;94.46
31346;BME280;21711;49.708;18.568;2023-02-11T05:30:17;98604.22;;;-0.14;94.44
31346;BME280;21711;49.708;18.568;2023-02-11T05:32:44;98609.31;;;-0.29;95.16
31346;BME280;21711;49.708;18.568;2023-02-11T05:35:11;98612.88;;;-0.21;95.48
31346;BME280;21711;49.708;18.568;2023-02-11T05:37:38;98608.47;;;-0.29;95.33
31346;BME280;21711;49.708;18.568;2023-02-11T05:40:06;98612.50;;;-0.18;94.95
31346;BME280;21711;49.708;18.568;2023-02-11T05:42:34;98615.47;;;-0.21;93.95
31346;BME280;21711;49.708;18.568;2023-02-11T05:45:01;98607.84;;;-0.31;94.15
31346;BME280;21711;49.708;18.568;2023-02-11T05:47:28;98588.81;;;-0.23;93.74
31346;BME280;21711;49.708;18.568;2023-02-11T05:49:56;98576.91;;;-0.18;93.25
31346;BME280;21711;49.708;18.568;2023-02-11T05:52:23;98573.78;;;-0.13;93.11
31346;BME280;21711;49.708;18.568;2023-02-11T05:54:51;98579.84;;;-0.21;94.27
31346;BME280;21711;49.708;18.568;2023-02-11T05:57:18;98586.50;;;-0.18;94.07
31346;BME280;21711;49.708;18.568;2023-02-11T05:59:46;98595.41;;;-0.12;93.59
31346;BME280;21711;49.708;18.568;2023-02-11T06:02:13;98598.78;;;-0.04;93.70
31346;BME280;21711;49.708;18.568;2023-02-11T06:04:40;98589.16;;;0.05;92.23
31346;BME280;21711;49.708;18.568;2023-02-11T06:07:08;98582.50;;;0.03;93.38
31346;BME280;21711;49.708;18.568;2023-02-11T06:09:36;98591.75;;;0.05;92.88
31346;BME280;21711;49.708;18.568;2023-02-11T06:12:04;98595.63;;;0.09;92.95
31346;BME280;21711;49.708;18.568;2023-02-11T06:14:32;98596.78;;;0.07;92.17
31346;BME280;21711;49.708;18.568;2023-02-11T06:17:00;98601.81;;;0.08;92.54
31346;BME280;21711;49.708;18.568;2023-02-11T06:19:28;98617.53;;;0.15;91.17
31346;BME280;21711;49.708;18.568;2023-02-11T06:21:56;98620.16;;;0.15;92.74
31346;BME280;21711;49.708;18.568;2023-02-11T06:24:23;98624.38;;;0.16;92.52
31346;BME280;21711;49.708;18.568;2023-02-11T06:27:11;98620.66;;;0.10;92.54
31346;BME280;21711;49.708;18.568;2023-02-11T06:29:38;98615.66;;;0.01;93.94
31346;BME280;21711;49.708;18.568;2023-02-11T06:32:05;98614.47;;;0.11;92.47
31346;BME280;21711;49.708;18.568;2023-02-11T06:34:41;98615.31;;;0.12;92.39
31346;BME280;21711;49.708;18.568;2023-02-11T06:37:09;98606.94;;;0.25;92.24
31346;BME280;21711;49.708;18.568;2023-02-11T06:39:36;98603.50;;;0.24;90.88
31346;BME280;21711;49.708;18.568;2023-02-11T06:42:04;98600.28;;;0.46;90.29
31346;BME280;21711;49.708;18.568;2023-02-11T06:44:33;98581.81;;;0.32;89.42
31346;BME280;21711;49.708;18.568;2023-02-11T06:47:01;98583.91;;;0.37;89.42
31346;BME280;21711;49.708;18.568;2023-02-11T06:49:28;98581.59;;;0.42;89.21
31346;BME280;21711;49.708;18.568;2023-02-11T06:51:55;98588.66;;;0.57;88.50
31346;BME280;21711;49.708;18.568;2023-02-11T06:54:23;98584.06;;;0.59;88.30
31346;BME280;21711;49.708;18.568;2023-02-11T06:56:50;98591.97;;;0.50;87.83
31346;BME280;21711;49.708;18.568;2023-02-11T06:59:18;98569.91;;;0.38;87.76
31346;BME280;21711;49.708;18.568;2023-02-11T07:01:47;98577.19;;;0.43;84.84
31346;BME280;21711;49.708;18.568;2023-02-11T07:04:14;98575.94;;;0.38;86.37
31346;BME280;21711;49.708;18.568;2023-02-11T07:06:42;98578.19;;;0.42;87.62
31346;BME280;21711;49.708;18.568;2023-02-11T07:09:09;98575.28;;;0.60;86.36
31346;BME280;21711;49.708;18.568;2023-02-11T07:11:36;98574.06;;;0.86;86.11
31346;BME280;21711;49.708;18.568;2023-02-11T07:14:07;98564.66;;;0.85;83.31
31346;BME280;21711;49.708;18.568;2023-02-11T07:16:34;98550.88;;;0.37;79.88
31346;BME280;21711;49.708;18.568;2023-02-11T07:19:02;98557.94;;;-0.27;81.51
31346;BME280;21711;49.708;18.568;2023-02-11T07:21:29;98555.09;;;-0.40;85.86
31346;BME280;21711;49.708;18.568;2023-02-11T07:23:57;98560.16;;;-0.15;83.17
31346;BME280;21711;49.708;18.568;2023-02-11T07:26:24;98569.44;;;0.11;83.90
31346;BME280;21711;49.708;18.568;2023-02-11T07:28:55;98578.75;;;0.52;85.00
31346;BME280;21711;49.708;18.568;2023-02-11T07:31:25;98583.69;;;0.85;80.78
31346;BME280;21711;49.708;18.568;2023-02-11T07:33:56;98590.84;;;1.22;81.99
31346;BME280;21711;49.708;18.568;2023-02-11T07:36:24;98592.19;;;1.33;80.01
31346;BME280;21711;49.708;18.568;2023-02-11T07:38:52;98591.38;;;1.47;79.91
31346;BME280;21711;49.708;18.568;2023-02-11T07:41:21;98593.00;;;1.78;78.67
31346;BME280;21711;49.708;18.568;2023-02-11T07:43:51;98590.16;;;1.95;77.05
31346;BME280;21711;49.708;18.568;2023-02-11T07:46:21;98585.59;;;2.19;76.45
31346;BME280;21711;49.708;18.568;2023-02-11T07:48:49;98594.03;;;2.21;75.36
31346;BME280;21711;49.708;18.568;2023-02-11T07:51:29;98589.00;;;2.63;74.07
31346;BME280;21711;49.708;18.568;2023-02-11T07:53:58;98597.50;;;2.72;72.64
31346;BME280;21711;49.708;18.568;2023-02-11T07:56:27;98603.81;;;2.78;72.21
31346;BME280;21711;49.708;18.568;2023-02-11T07:58:58;98593.09;;;3.01;71.98
31346;BME280;21711;49.708;18.568;2023-02-11T08:01:26;98584.66;;;2.99;72.62
31346;BME280;21711;49.708;18.568;2023-02-11T08:03:56;98571.31;;;3.22;70.16
31346;BME280;21711;49.708;18.568;2023-02-11T08:06:27;98570.22;;;3.38;68.23
31346;BME280;21711;49.708;18.568;2023-02-11T08:08:55;98581.88;;;3.85;67.87
31346;BME280;21711;49.708;18.568;2023-02-11T08:11:26;98585.97;;;4.07;65.95
31346;BME280;21711;49.708;18.568;2023-02-11T08:13:55;98590.06;;;4.24;67.53
31346;BME280;21711;49.708;18.568;2023-02-11T08:16:30;98591.16;;;3.94;66.95
31346;BME280;21711;49.708;18.568;2023-02-11T08:19:03;98568.66;;;4.00;66.31
31346;BME280;21711;49.708;18.568;2023-02-11T08:21:30;98568.53;;;3.66;67.82
31346;BME280;21711;49.708;18.568;2023-02-11T08:23:58;98563.22;;;3.46;68.67
31346;BME280;21711;49.708;18.568;2023-02-11T08:26:28;98562.06;;;3.20;69.11
31346;BME280;21711;49.708;18.568;2023-02-11T08:28:57;98564.41;;;3.43;70.02
31346;BME280;21711;49.708;18.568;2023-02-11T08:31:33;98558.47;;;3.63;69.88
31346;BME280;21711;49.708;18.568;2023-02-11T08:34:01;98551.50;;;3.35;69.20
31346;BME280;21711;49.708;18.568;2023-02-11T08:36:32;98553.66;;;3.24;70.75
31346;BME280;21711;49.708;18.568;2023-02-11T08:39:04;98548.47;;;3.31;71.46
31346;BME280;21711;49.708;18.568;2023-02-11T08:41:47;98556.13;;;3.33;69.29
31346;BME280;21711;49.708;18.568;2023-02-11T08:44:16;98556.25;;;3.66;69.06
31346;BME280;21711;49.708;18.568;2023-02-11T08:46:44;98551.34;;;3.99;68.64
31346;BME280;21711;49.708;18.568;2023-02-11T08:49:12;98549.19;;;3.60;68.17
31346;BME280;21711;49.708;18.568;2023-02-11T08:51:40;98555.00;;;4.31;66.59
31346;BME280;21711;49.708;18.568;2023-02-11T08:54:07;98561.69;;;6.45;58.69
31346;BME280;21711;49.708;18.568;2023-02-11T08:56:37;98569.06;;;7.62;55.41
31346;BME280;21711;49.708;18.568;2023-02-11T08:59:05;98563.63;;;7.95;52.00
31346;BME280;21711;49.708;18.568;2023-02-11T09:01:34;98559.81;;;7.22;54.51
31346;BME280;21711;49.708;18.568;2023-02-11T09:04:01;98570.66;;;6.89;54.27
31346;BME280;21711;49.708;18.568;2023-02-11T09:06:29;98589.97;;;6.50;56.01
31346;BME280;21711;49.708;18.568;2023-02-11T09:08:57;98579.50;;;6.04;58.25
31346;BME280;21711;49.708;18.568;2023-02-11T09:11:32;98586.88;;;4.96;62.15
31346;BME280;21711;49.708;18.568;2023-02-11T09:14:02;98580.59;;;5.10;61.36
31346;BME280;21711;49.708;18.568;2023-02-11T09:16:34;98576.97;;;5.18;61.45
31346;BME280;21711;49.708;18.568;2023-02-11T09:19:04;98565.09;;;4.82;63.66
31346;BME280;21711;49.708;18.568;2023-02-11T09:21:32;98566.94;;;4.74;63.71
31346;BME280;21711;49.708;18.568;2023-02-11T09:23:59;98565.91;;;4.89;64.25
31346;BME280;21711;49.708;18.568;2023-02-11T09:26:29;98566.94;;;4.81;63.87
31346;BME280;21711;49.708;18.568;2023-02-11T09:28:58;98556.63;;;5.07;64.01
31346;BME280;21711;49.708;18.568;2023-02-11T09:31:29;98548.38;;;4.83;63.54
31346;BME280;21711;49.708;18.568;2023-02-11T09:34:01;98541.22;;;5.31;63.19
31346;BME280;21711;49.708;18.568;2023-02-11T09:36:33;98550.16;;;5.16;62.44
31346;BME280;21711;49.708;18.568;2023-02-11T09:39:03;98545.72;;;5.03;63.89
31346;BME280;21711;49.708;18.568;2023-02-11T09:44:30;98544.09;;;5.16;64.30
31346;BME280;21711;49.708;18.568;2023-02-11T09:49:47;98552.31;;;5.33;63.36
31346;BME280;21711;49.708;18.568;2023-02-11T09:52:33;98556.03;;;4.84;64.45
31346;BME280;21711;49.708;18.568;2023-02-11T09:55:18;98553.81;;;4.47;65.44
31346;BME280;21711;49.708;18.568;2023-02-11T09:57:47;98569.13;;;4.84;65.00
31346;BME280;21711;49.708;18.568;2023-02-11T10:09:50;98574.53;;;4.29;68.18
31346;BME280;21711;49.708;18.568;2023-02-11T10:18:29;98560.22;;;4.25;68.60
31346;BME280;21711;49.708;18.568;2023-02-11T10:21:29;98551.53;;;4.04;69.33
31346;BME280;21711;49.708;18.568;2023-02-11T10:24:04;98544.75;;;4.64;66.44
31346;BME280;21711;49.708;18.568;2023-02-11T10:26:37;98539.72;;;4.76;67.53
31346;BME280;21711;49.708;18.568;2023-02-11T10:29:25;98546.47;;;5.31;64.83
31346;BME280;21711;49.708;18.568;2023-02-11T10:31:58;98541.53;;;5.61;62.72
31346;BME280;21711;49.708;18.568;2023-02-11T10:34:26;98527.44;;;5.49;62.17
31346;BME280;21711;49.708;18.568;2023-02-11T10:36:54;98517.38;;;5.39;64.13
31346;BME280;21711;49.708;18.568;2023-02-11T10:39:25;98516.44;;;6.11;62.28
31346;BME280;21711;49.708;18.568;2023-02-11T10:42:04;98512.38;;;6.15;60.63
31346;BME280;21711;49.708;18.568;2023-02-11T10:44:39;98502.31;;;5.21;63.69
31346;BME280;21711;49.708;18.568;2023-02-11T10:47:19;98503.16;;;5.15;65.02
31346;BME280;21711;49.708;18.568;2023-02-11T10:49:48;98509.75;;;5.31;64.59
31346;BME280;21711;49.708;18.568;2023-02-11T10:52:27;98494.97;;;4.16;68.23
31346;BME280;21711;49.708;18.568;2023-02-11T10:55:20;98501.22;;;4.49;69.28
31346;BME280;21711;49.708;18.568;2023-02-11T10:58:01;98488.31;;;4.47;68.42
31346;BME280;21711;49.708;18.568;2023-02-11T11:00:41;98468.38;;;4.60;69.23
31346;BME280;21711;49.708;18.568;2023-02-11T11:03:18;98462.00;;;5.08;67.36
31346;BME280;21711;49.708;18.568;2023-02-11T11:05:52;98452.81;;;4.85;66.97
31346;BME280;21711;49.708;18.568;2023-02-11T11:11:22;98429.63;;;4.76;67.97
31346;BME280;21711;49.708;18.568;2023-02-11T11:13:54;98414.47;;;4.91;67.90
31346;BME280;21711;49.708;18.568;2023-02-11T11:16:34;98421.75;;;7.25;60.93
31346;BME280;21711;49.708;18.568;2023-02-11T11:21:53;98404.16;;;5.74;63.95
31346;BME280;21711;49.708;18.568;2023-02-11T11:24:43;98392.56;;;5.18;66.12
31346;BME280;21711;49.708;18.568;2023-02-11T11:27:31;98393.06;;;5.72;64.53
31346;BME280;21711;49.708;18.568;2023-02-11T11:29:59;98400.28;;;5.51;64.38
31346;BME280;21711;49.708;18.568;2023-02-11T11:32:30;98401.16;;;5.38;66.33
31346;BME280;21711;49.708;18.568;2023-02-11T11:35:06;98398.19;;;5.60;65.76
31346;BME280;21711;49.708;18.568;2023-02-11T11:37:36;98392.25;;;5.39;66.45
31346;BME280;21711;49.708;18.568;2023-02-11T11:42:40;98398.66;;;5.83;64.38
31346;BME280;21711;49.708;18.568;2023-02-11T11:48:05;98404.38;;;6.05;63.55
31346;BME280;21711;49.708;18.568;2023-02-11T11:50:55;98395.84;;;6.10;64.43
31346;BME280;21711;49.708;18.568;2023-02-11T11:56:25;98401.78;;;5.66;65.40
31346;BME280;21711;49.708;18.568;2023-02-11T11:58:53;98407.38;;;5.44;65.59
31346;BME280;21711;49.708;18.568;2023-02-11T12:05:12;98426.47;;;4.19;71.62
31346;BME280;21711;49.708;18.568;2023-02-11T12:08:14;98426.69;;;4.31;71.86
31346;BME280;21711;49.708;18.568;2023-02-11T12:17:33;98416.19;;;4.45;71.97
31346;BME280;21711;49.708;18.568;2023-02-11T12:20:37;98420.84;;;3.95;75.27
31346;BME280;21711;49.708;18.568;2023-02-11T12:26:21;98441.72;;;3.48;78.63
31346;BME280;21711;49.708;18.568;2023-02-11T12:35:15;98434.31;;;3.72;78.24
31346;BME280;21711;49.708;18.568;2023-02-11T12:57:25;98425.44;;;3.66;79.48
31346;BME280;21711;49.708;18.568;2023-02-11T13:06:21;98411.13;;;3.55;81.89
31346;BME280;21711;49.708;18.568;2023-02-11T13:08:46;98410.50;;;3.47;82.47
31346;BME280;21711;49.708;18.568;2023-02-11T13:11:37;98405.50;;;3.52;82.62
31346;BME280;21711;49.708;18.568;2023-02-11T13:14:29;98402.84;;;3.38;82.42
31346;BME280;21711;49.708;18.568;2023-02-11T13:16:58;98405.44;;;3.32;83.85
31346;BME280;21711;49.708;18.568;2023-02-11T13:19:45;98400.63;;;3.42;83.99
31346;BME280;21711;49.708;18.568;2023-02-11T13:22:40;98400.59;;;3.22;84.68
31346;BME280;21711;49.708;18.568;2023-02-11T13:26:01;98407.75;;;3.06;86.12
31346;BME280;21711;49.708;18.568;2023-02-11T13:28:49;98399.75;;;3.14;85.96
31346;BME280;21711;49.708;18.568;2023-02-11T13:31:19;98415.00;;;3.04;87.75
31346;BME280;21711;49.708;18.568;2023-02-11T13:33:47;98393.84;;;2.92;89.13
31346;BME280;21711;49.708;18.568;2023-02-11T13:36:37;98391.06;;;3.00;88.59
31346;BME280;21711;49.708;18.568;2023-02-11T13:39:05;98368.53;;;2.93;88.65
31346;BME280;21711;49.708;18.568;2023-02-11T13:41:39;98357.53;;;3.11;88.05
31346;BME280;21711;49.708;18.568;2023-02-11T13:46:55;98346.84;;;2.99;90.64
31346;BME280;21711;49.708;18.568;2023-02-11T13:49:30;98343.59;;;2.97;91.23
31346;BME280;21711;49.708;18.568;2023-02-11T13:51:59;98357.00;;;2.73;92.28
31346;BME280;21711;49.708;18.568;2023-02-11T13:54:33;98353.03;;;2.84;92.38
31346;BME280;21711;49.708;18.568;2023-02-11T13:57:35;98335.09;;;2.81;94.57
31346;BME280;21711;49.708;18.568;2023-02-11T14:15:01;98332.34;;;2.96;95.33
31346;BME280;21711;49.708;18.568;2023-02-11T14:17:33;98316.59;;;2.76;97.44
31346;BME280;21711;49.708;18.568;2023-02-11T14:20:04;98292.72;;;2.79;97.62
31346;BME280;21711;49.708;18.568;2023-02-11T14:22:52;98286.34;;;3.02;96.03
31346;BME280;21711;49.708;18.568;2023-02-11T14:25:24;98295.91;;;2.81;97.49
31346;BME280;21711;49.708;18.568;2023-02-11T14:28:22;98301.03;;;3.03;97.13
31346;BME280;21711;49.708;18.568;2023-02-11T14:31:21;98301.84;;;3.24;94.88
31346;BME280;21711;49.708;18.568;2023-02-11T14:40:28;98323.94;;;3.14;95.96
31346;BME280;21711;49.708;18.568;2023-02-11T14:43:03;98322.28;;;2.93;97.20
31346;BME280;21711;49.708;18.568;2023-02-11T14:45:34;98329.69;;;2.83;98.18
31346;BME280;21711;49.708;18.568;2023-02-11T14:48:07;98335.97;;;2.88;98.03
31346;BME280;21711;49.708;18.568;2023-02-11T14:53:17;98345.44;;;3.03;98.00
31346;BME280;21711;49.708;18.568;2023-02-11T14:55:49;98355.06;;;2.96;96.92
31346;BME280;21711;49.708;18.568;2023-02-11T14:58:27;98350.25;;;2.93;96.48
31346;BME280;21711;49.708;18.568;2023-02-11T15:03:56;98346.59;;;2.87;98.14
31346;BME280;21711;49.708;18.568;2023-02-11T15:06:37;98339.13;;;2.84;98.35
31346;BME280;21711;49.708;18.568;2023-02-11T15:09:17;98342.94;;;2.81;98.28
31346;BME280;21711;49.708;18.568;2023-02-11T15:11:47;98341.63;;;2.99;97.06
31346;BME280;21711;49.708;18.568;2023-02-11T15:14:23;98353.41;;;2.81;98.16
31346;BME280;21711;49.708;18.568;2023-02-11T15:16:58;98352.84;;;2.93;98.80
31346;BME280;21711;49.708;18.568;2023-02-11T15:19:38;98358.09;;;2.99;98.74
31346;BME280;21711;49.708;18.568;2023-02-11T15:22:23;98345.78;;;2.86;99.74
31346;BME280;21711;49.708;18.568;2023-02-11T15:25:08;98349.00;;;2.82;100.00
31346;BME280;21711;49.708;18.568;2023-02-11T15:27:48;98345.41;;;2.89;100.00
31346;BME280;21711;49.708;18.568;2023-02-11T15:30:23;98333.75;;;2.92;99.52
31346;BME280;21711;49.708;18.568;2023-02-11T15:33:03;98347.56;;;2.79;100.00
31346;BME280;21711;49.708;18.568;2023-02-11T15:35:37;98341.59;;;2.92;100.00
31346;BME280;21711;49.708;18.568;2023-02-11T15:38:06;98352.03;;;2.92;100.00